Time,TemperatureF,DewpointF,PressureIn,WindDirection,WindDirectionDegrees,WindSpeedMPH,WindSpeedGustMPH,Humidity,HourlyPrecipIn,Conditions,Clouds,dailyrainin,SoftwareType,DateUTC
2013-06-18 00:02:00,55.4,52.2,30.02,North,-999,0.0,0.0,89,0.00,,,0.00,pywws,2013-06-18 07:02:00,
2013-06-18 00:07:00,55.4,52.2,30.03,North,-999,0.0,0.0,89,0.00,,,0.00,pywws,2013-06-18 07:07:00,
2013-06-18 00:12:00,55.2,52.3,30.03,North,-999,0.0,0.0,90,0.00,,,0.00,pywws,2013-06-18 07:12:00,
2013-06-18 00:17:00,55.2,52.3,30.03,North,-999,0.0,0.0,90,0.00,,,0.00,pywws,2013-06-18 07:17:00,
2013-06-18 00:22:00,55.2,52.3,30.03,North,-999,0.0,0.0,90,0.00,,,0.00,pywws,2013-06-18 07:22:00,
2013-06-18 00:27:00,55.4,52.2,30.02,North,-999,0.0,0.0,89,0.00,,,0.00,pywws,2013-06-18 07:27:00,
2013-06-18 00:32:00,55.0,52.2,30.02,North,-999,0.0,0.0,90,0.00,,,0.00,pywws,2013-06-18 07:32:00,
2013-06-18 00:37:00,55.0,52.2,30.02,North,-999,0.0,0.0,90,0.00,,,0.00,pywws,2013-06-18 07:37:00,
2013-06-18 00:42:00,54.9,52.0,30.03,North,-999,0.0,0.0,90,0.00,,,0.00,pywws,2013-06-18 07:42:00,
2013-06-18 00:47:00,54.9,52.0,30.02,North,-999,0.0,0.0,90,0.00,,,0.00,pywws,2013-06-18 07:47:00,
2013-06-18 00:52:00,55.0,52.2,30.02,North,-999,0.0,0.0,90,0.00,,,0.00,pywws,2013-06-18 07:52:00,
2013-06-18 00:57:00,55.0,52.2,30.03,North,-999,0.0,0.0,90,0.00,,,0.00,pywws,2013-06-18 07:57:00,
2013-06-18 01:02:00,54.9,52.0,30.03,North,-999,0.0,0.0,90,0.00,,,0.00,pywws,2013-06-18 08:02:00,
2013-06-18 01:07:00,54.9,52.0,30.02,North,-999,0.0,0.0,90,0.00,,,0.00,pywws,2013-06-18 08:07:00,
2013-06-18 01:12:00,55.0,52.2,30.02,North,-999,0.0,0.0,90,0.00,,,0.00,pywws,2013-06-18 08:12:00,
2013-06-18 01:17:00,55.0,52.2,30.02,North,-999,0.0,0.0,90,0.00,,,0.00,pywws,2013-06-18 08:17:00,
2013-06-18 01:22:00,55.2,52.3,30.02,North,-999,0.0,0.0,90,0.00,,,0.00,pywws,2013-06-18 08:22:00,
2013-06-18 01:27:00,55.4,52.5,30.02,North,-999,0.0,0.0,90,0.00,,,0.00,pywws,2013-06-18 08:27:00,
2013-06-18 01:32:00,55.4,52.5,30.02,North,-999,0.0,0.0,90,0.00,,,0.00,pywws,2013-06-18 08:32:00,
2013-06-18 01:37:00,55.4,52.5,30.02,North,-999,0.0,0.0,90,0.00,,,0.00,pywws,2013-06-18 08:37:00,
2013-06-18 01:42:00,55.2,52.6,30.02,North,-999,0.0,0.0,91,0.00,,,0.00,pywws,2013-06-18 08:42:00,
2013-06-18 01:47:00,55.6,52.7,30.02,North,-999,0.0,0.0,90,0.00,,,0.00,pywws,2013-06-18 08:47:00,
2013-06-18 01:52:00,55.4,52.5,30.01,North,-999,0.0,0.0,90,0.00,,,0.00,pywws,2013-06-18 08:52:00,
2013-06-18 01:57:00,55.4,52.5,30.01,North,-999,0.0,0.0,90,0.00,,,0.00,pywws,2013-06-18 08:57:00,
2013-06-18 02:02:00,55.4,52.5,30.01,North,-999,0.0,0.0,90,0.00,,,0.00,pywws,2013-06-18 09:02:00,
2013-06-18 02:07:00,55.2,52.6,30.01,North,-999,0.0,0.0,91,0.00,,,0.00,pywws,2013-06-18 09:07:00,
2013-06-18 02:12:00,55.2,52.3,30.01,North,-999,0.0,0.0,90,0.00,,,0.00,pywws,2013-06-18 09:12:00,
2013-06-18 02:17:00,55.2,52.6,30.01,North,-999,0.0,0.0,91,0.00,,,0.00,pywws,2013-06-18 09:17:00,
2013-06-18 02:22:00,55.0,52.2,30.01,North,-999,0.0,0.0,90,0.00,,,0.00,pywws,2013-06-18 09:22:00,
2013-06-18 02:27:00,55.0,52.2,30.01,North,-999,0.0,0.0,90,0.00,,,0.00,pywws,2013-06-18 09:27:00,
2013-06-18 02:32:00,54.9,52.0,30.01,North,-999,0.0,0.0,90,0.00,,,0.00,pywws,2013-06-18 09:32:00,
2013-06-18 02:37:00,54.9,52.0,30.01,North,-999,0.0,0.0,90,0.00,,,0.00,pywws,2013-06-18 09:37:00,
2013-06-18 02:42:00,55.0,52.2,30.01,North,-999,0.0,0.0,90,0.00,,,0.00,pywws,2013-06-18 09:42:00,
2013-06-18 02:47:00,55.0,52.2,30.01,North,-999,0.0,0.0,90,0.00,,,0.00,pywws,2013-06-18 09:47:00,
2013-06-18 02:52:00,55.2,52.6,30.01,North,-999,0.0,0.0,91,0.00,,,0.00,pywws,2013-06-18 09:52:00,
2013-06-18 02:57:00,55.2,52.3,30.01,North,-999,0.0,0.0,90,0.00,,,0.00,pywws,2013-06-18 09:57:00,
2013-06-18 03:02:00,55.0,52.5,30.01,North,-999,0.0,0.0,91,0.00,,,0.00,pywws,2013-06-18 10:02:00,
2013-06-18 03:07:00,55.0,52.5,30.01,North,-999,0.0,0.0,91,0.00,,,0.00,pywws,2013-06-18 10:07:00,
2013-06-18 03:12:00,55.4,52.5,30.01,North,-999,0.0,0.0,90,0.00,,,0.00,pywws,2013-06-18 10:12:00,
2013-06-18 03:17:00,55.2,52.3,30.01,North,-999,0.0,0.0,90,0.00,,,0.00,pywws,2013-06-18 10:17:00,
2013-06-18 03:22:00,55.0,52.2,30.01,North,-999,0.0,0.0,90,0.00,,,0.00,pywws,2013-06-18 10:22:00,
2013-06-18 03:27:00,55.0,52.2,30.01,North,-999,0.0,0.0,90,0.00,,,0.00,pywws,2013-06-18 10:27:00,
2013-06-18 03:32:00,55.2,52.3,30.01,North,-999,0.0,0.0,90,0.00,,,0.00,pywws,2013-06-18 10:32:00,
2013-06-18 03:37:00,55.0,52.2,30.01,North,-999,0.0,0.0,90,0.00,,,0.00,pywws,2013-06-18 10:37:00,
2013-06-18 03:42:00,54.9,52.0,30.01,North,-999,0.0,0.0,90,0.00,,,0.00,pywws,2013-06-18 10:42:00,
2013-06-18 03:47:00,55.0,52.2,30.01,North,-999,0.0,0.0,90,0.00,,,0.00,pywws,2013-06-18 10:47:00,
2013-06-18 03:52:00,55.0,52.2,30.01,North,-999,0.0,0.0,90,0.00,,,0.00,pywws,2013-06-18 10:52:00,
2013-06-18 03:57:00,55.2,52.3,30.01,North,-999,0.0,0.0,90,0.00,,,0.00,pywws,2013-06-18 10:57:00,
2013-06-18 04:02:00,55.2,52.3,30.01,North,-999,0.0,0.0,90,0.00,,,0.00,pywws,2013-06-18 11:02:00,
2013-06-18 04:07:00,55.0,52.5,30.01,North,-999,0.0,0.0,91,0.00,,,0.00,pywws,2013-06-18 11:07:00,
2013-06-18 04:12:00,54.9,52.3,30.01,North,-999,0.0,0.0,91,0.00,,,0.00,pywws,2013-06-18 11:12:00,
2013-06-18 04:17:00,55.2,52.6,30.01,North,-999,0.0,0.0,91,0.00,,,0.00,pywws,2013-06-18 11:17:00,
2013-06-18 04:22:00,55.2,52.6,30.01,North,-999,0.0,0.0,91,0.00,,,0.00,pywws,2013-06-18 11:22:00,
2013-06-18 04:27:00,55.4,52.5,30.01,North,-999,0.0,0.0,90,0.00,,,0.00,pywws,2013-06-18 11:27:00,
2013-06-18 04:32:00,54.9,52.3,30.01,North,-999,0.0,0.0,91,0.00,,,0.00,pywws,2013-06-18 11:32:00,
2013-06-18 04:37:00,55.0,52.5,30.01,North,-999,0.0,0.0,91,0.00,,,0.00,pywws,2013-06-18 11:37:00,
2013-06-18 04:42:00,55.0,52.5,30.01,North,-999,0.0,0.0,91,0.00,,,0.00,pywws,2013-06-18 11:42:00,
2013-06-18 04:47:00,55.2,52.6,30.01,North,-999,0.0,0.0,91,0.00,,,0.00,pywws,2013-06-18 11:47:00,
2013-06-18 04:52:00,55.0,52.5,30.01,North,-999,0.0,0.0,91,0.00,,,0.00,pywws,2013-06-18 11:52:00,
2013-06-18 04:57:00,55.2,52.6,30.01,North,-999,0.0,0.0,91,0.00,,,0.00,pywws,2013-06-18 11:57:00,
2013-06-18 05:02:00,55.0,52.5,30.01,North,-999,0.0,0.0,91,0.00,,,0.00,pywws,2013-06-18 12:02:00,
2013-06-18 05:07:00,55.0,52.5,30.01,North,-999,0.0,0.0,91,0.00,,,0.00,pywws,2013-06-18 12:07:00,
2013-06-18 05:12:00,55.2,52.6,30.01,North,-999,0.0,0.0,91,0.00,,,0.00,pywws,2013-06-18 12:12:00,
2013-06-18 05:17:00,55.0,52.5,30.01,North,-999,0.0,0.0,91,0.00,,,0.00,pywws,2013-06-18 12:17:00,
2013-06-18 05:22:00,55.0,52.5,30.01,North,-999,0.0,0.0,91,0.00,,,0.00,pywws,2013-06-18 12:22:00,
2013-06-18 05:27:00,55.0,52.5,30.01,North,-999,0.0,0.0,91,0.00,,,0.00,pywws,2013-06-18 12:27:00,
2013-06-18 05:32:00,55.0,52.5,30.01,North,-999,0.0,0.0,91,0.00,,,0.00,pywws,2013-06-18 12:32:00,
2013-06-18 05:37:00,55.0,52.5,30.01,North,-999,0.0,0.0,91,0.00,,,0.00,pywws,2013-06-18 12:37:00,
2013-06-18 05:42:00,55.2,52.6,30.01,North,-999,0.0,0.0,91,0.00,,,0.00,pywws,2013-06-18 12:42:00,
2013-06-18 05:47:00,55.4,52.5,30.01,North,-999,0.0,0.0,90,0.00,,,0.00,pywws,2013-06-18 12:47:00,
2013-06-18 05:52:00,55.2,52.6,30.01,North,-999,0.0,0.0,91,0.00,,,0.00,pywws,2013-06-18 12:52:00,
2013-06-18 05:57:00,55.2,52.6,30.01,North,-999,0.0,0.0,91,0.00,,,0.00,pywws,2013-06-18 12:57:00,
2013-06-18 06:02:00,55.0,52.5,30.01,North,-999,0.0,0.0,91,0.00,,,0.00,pywws,2013-06-18 13:02:00,
2013-06-18 06:07:00,55.4,52.5,30.01,North,-999,0.0,0.0,90,0.00,,,0.00,pywws,2013-06-18 13:07:00,
2013-06-18 06:12:00,55.2,52.3,30.01,North,-999,0.0,0.0,90,0.00,,,0.00,pywws,2013-06-18 13:12:00,
2013-06-18 06:17:00,55.0,52.2,30.01,North,-999,0.0,0.0,90,0.00,,,0.00,pywws,2013-06-18 13:17:00,
2013-06-18 06:22:00,55.0,52.2,30.01,North,-999,0.0,0.0,90,0.00,,,0.00,pywws,2013-06-18 13:22:00,
2013-06-18 06:27:00,55.4,52.5,30.01,North,-999,0.0,0.0,90,0.00,,,0.00,pywws,2013-06-18 13:27:00,
2013-06-18 06:32:00,55.4,52.5,30.01,North,-999,0.0,0.0,90,0.00,,,0.00,pywws,2013-06-18 13:32:00,
2013-06-18 06:37:00,55.8,52.9,30.01,North,-999,0.0,0.0,90,0.00,,,0.00,pywws,2013-06-18 13:37:00,
2013-06-18 06:42:00,56.1,53.2,30.01,North,-999,0.0,0.0,90,0.00,,,0.00,pywws,2013-06-18 13:42:00,
2013-06-18 06:47:00,56.3,53.4,30.01,North,-999,0.0,0.0,90,0.00,,,0.00,pywws,2013-06-18 13:47:00,
2013-06-18 06:52:00,56.1,53.2,30.01,North,-999,0.0,0.0,90,0.00,,,0.00,pywws,2013-06-18 13:52:00,
2013-06-18 06:57:00,56.8,53.9,30.01,North,-999,0.0,0.0,90,0.00,,,0.00,pywws,2013-06-18 13:57:00,
2013-06-18 07:02:00,56.7,53.8,30.01,North,-999,0.0,0.0,90,0.00,,,0.00,pywws,2013-06-18 14:02:00,
2013-06-18 07:07:00,56.7,53.8,30.01,North,-999,0.0,0.0,90,0.00,,,0.00,pywws,2013-06-18 14:07:00,
2013-06-18 07:12:00,57.0,54.1,30.01,North,-999,0.0,0.0,90,0.00,,,0.00,pywws,2013-06-18 14:12:00,
2013-06-18 07:17:00,57.0,54.1,30.01,North,-999,0.0,0.0,90,0.00,,,0.00,pywws,2013-06-18 14:17:00,
2013-06-18 07:22:00,57.0,53.8,30.01,North,-999,0.0,0.0,89,0.00,,,0.00,pywws,2013-06-18 14:22:00,
2013-06-18 07:27:00,57.0,53.8,30.01,North,-999,0.0,0.0,89,0.00,,,0.00,pywws,2013-06-18 14:27:00,
2013-06-18 07:32:00,56.8,53.6,30.01,North,-999,0.0,0.0,89,0.00,,,0.00,pywws,2013-06-18 14:32:00,
2013-06-18 07:37:00,57.0,53.8,30.01,North,-999,0.0,0.0,89,0.00,,,0.00,pywws,2013-06-18 14:37:00,
2013-06-18 07:42:00,56.7,53.5,30.01,North,-999,0.0,0.0,89,0.00,,,0.00,pywws,2013-06-18 14:42:00,
2013-06-18 07:47:00,56.8,53.6,30.01,North,-999,0.0,0.0,89,0.00,,,0.00,pywws,2013-06-18 14:47:00,
2013-06-18 07:52:00,56.8,53.6,30.01,North,-999,0.0,0.0,89,0.00,,,0.00,pywws,2013-06-18 14:52:00,
2013-06-18 08:03:00,56.7,53.5,30.01,North,-999,0.0,0.0,89,0.00,,,0.00,pywws,2013-06-18 15:03:00,
2013-06-18 08:07:00,56.7,53.5,30.01,North,-999,0.0,0.0,89,0.00,,,0.00,pywws,2013-06-18 15:07:00,
2013-06-18 08:12:00,56.3,52.8,30.01,North,-999,0.0,0.0,88,0.00,,,0.00,pywws,2013-06-18 15:12:00,
2013-06-18 08:17:00,56.3,52.8,30.01,North,-999,0.0,0.0,88,0.00,,,0.00,pywws,2013-06-18 15:17:00,
2013-06-18 08:22:00,56.5,53.0,30.01,North,-999,0.0,0.0,88,0.00,,,0.00,pywws,2013-06-18 15:22:00,
2013-06-18 08:27:00,56.5,53.0,30.01,North,-999,0.0,0.0,88,0.00,,,0.00,pywws,2013-06-18 15:27:00,
2013-06-18 08:32:00,57.0,53.5,30.01,North,-999,0.0,0.0,88,0.00,,,0.00,pywws,2013-06-18 15:32:00,
2013-06-18 08:37:00,57.4,53.5,30.01,North,-999,0.0,0.0,87,0.00,,,0.00,pywws,2013-06-18 15:37:00,
2013-06-18 08:42:00,58.3,54.4,30.01,North,-999,0.0,0.0,87,0.00,,,0.00,pywws,2013-06-18 15:42:00,
2013-06-18 08:47:00,58.1,54.2,30.00,North,-999,0.0,0.0,87,0.00,,,0.00,pywws,2013-06-18 15:47:00,
2013-06-18 08:52:00,58.5,54.3,30.01,North,-999,0.0,0.0,86,0.00,,,0.00,pywws,2013-06-18 15:52:00,
2013-06-18 08:57:00,58.5,54.0,30.00,North,-999,0.0,0.0,85,0.00,,,0.00,pywws,2013-06-18 15:57:00,
2013-06-18 09:02:00,58.5,54.0,30.01,North,-999,0.0,0.0,85,0.00,,,0.00,pywws,2013-06-18 16:02:00,
2013-06-18 09:07:00,58.5,54.0,30.01,North,-999,0.0,0.0,85,0.00,,,0.00,pywws,2013-06-18 16:07:00,
2013-06-18 09:12:00,57.7,53.3,30.01,North,-999,0.0,0.0,85,0.00,,,0.00,pywws,2013-06-18 16:12:00,
2013-06-18 09:17:00,58.1,53.3,30.01,North,-999,0.0,0.0,84,0.00,,,0.00,pywws,2013-06-18 16:17:00,
2013-06-18 09:22:00,57.9,53.1,30.01,North,-999,0.0,0.0,84,0.00,,,0.00,pywws,2013-06-18 16:22:00,
2013-06-18 09:27:00,58.3,53.5,30.00,North,-999,0.0,0.0,84,0.00,,,0.00,pywws,2013-06-18 16:27:00,
2013-06-18 09:32:00,58.1,53.3,30.00,North,-999,0.0,0.0,84,0.00,,,0.00,pywws,2013-06-18 16:32:00,
2013-06-18 09:37:00,58.8,53.3,30.00,North,-999,0.0,0.0,82,0.00,,,0.00,pywws,2013-06-18 16:37:00,
2013-06-18 09:42:00,58.8,53.3,30.00,North,-999,0.0,0.0,82,0.00,,,0.00,pywws,2013-06-18 16:42:00,
2013-06-18 09:47:00,58.6,52.8,29.99,North,-999,0.0,0.0,81,0.00,,,0.00,pywws,2013-06-18 16:47:00,
2013-06-18 09:52:00,58.8,52.3,29.99,North,-999,0.0,0.0,79,0.00,,,0.00,pywws,2013-06-18 16:52:00,
2013-06-18 09:57:00,59.0,51.8,29.99,North,-999,0.0,0.0,77,0.00,,,0.00,pywws,2013-06-18 16:57:00,
2013-06-18 10:02:00,59.5,52.0,29.99,North,-999,0.0,0.0,76,0.00,,,0.00,pywws,2013-06-18 17:02:00,
2013-06-18 10:07:00,59.4,51.4,29.99,North,-999,0.0,0.0,75,0.00,,,0.00,pywws,2013-06-18 17:07:00,
2013-06-18 10:12:00,59.5,51.6,29.99,North,-999,0.0,0.0,75,0.00,,,0.00,pywws,2013-06-18 17:12:00,
2013-06-18 10:17:00,59.9,52.3,29.99,North,-999,0.0,0.0,76,0.00,,,0.00,pywws,2013-06-18 17:17:00,
2013-06-18 10:22:00,60.4,52.5,29.99,North,-999,0.0,0.0,75,0.00,,,0.00,pywws,2013-06-18 17:22:00,
2013-06-18 10:27:00,60.1,52.5,29.99,North,-999,0.0,0.0,76,0.00,,,0.00,pywws,2013-06-18 17:27:00,
2013-06-18 10:32:00,60.1,53.2,29.99,North,-999,0.0,0.0,78,0.00,,,0.00,pywws,2013-06-18 17:32:00,
2013-06-18 10:37:00,60.3,53.4,29.99,North,-999,0.0,0.0,78,0.00,,,0.00,pywws,2013-06-18 17:37:00,
2013-06-18 10:42:00,62.1,54.0,29.99,North,-999,0.0,0.0,75,0.00,,,0.00,pywws,2013-06-18 17:42:00,
2013-06-18 10:47:00,61.5,53.5,29.99,North,-999,0.0,0.0,75,0.00,,,0.00,pywws,2013-06-18 17:47:00,
2013-06-18 10:52:00,61.2,52.8,29.99,North,-999,0.0,0.0,74,0.00,,,0.00,pywws,2013-06-18 17:52:00,
2013-06-18 11:02:00,61.2,53.2,29.99,North,-999,0.0,0.0,75,0.00,,,0.00,pywws,2013-06-18 18:02:00,
2013-06-18 11:07:00,62.1,54.4,29.99,North,-999,0.0,0.0,76,0.00,,,0.00,pywws,2013-06-18 18:07:00,
2013-06-18 11:12:00,61.5,52.4,29.98,North,-999,0.0,0.0,72,0.00,,,0.00,pywws,2013-06-18 18:12:00,
2013-06-18 11:17:00,62.1,52.9,29.98,North,-999,0.0,0.0,72,0.00,,,0.00,pywws,2013-06-18 18:17:00,
2013-06-18 11:22:00,61.3,52.6,29.98,North,-999,0.0,0.0,73,0.00,,,0.00,pywws,2013-06-18 18:22:00,
2013-06-18 11:27:00,61.3,52.6,29.98,North,-999,0.0,0.0,73,0.00,,,0.00,pywws,2013-06-18 18:27:00,
2013-06-18 11:32:00,63.5,53.9,29.98,North,-999,0.0,0.0,71,0.00,,,0.00,pywws,2013-06-18 18:32:00,
2013-06-18 11:37:00,62.6,52.7,29.98,North,-999,0.0,0.0,70,0.00,,,0.00,pywws,2013-06-18 18:37:00,
2013-06-18 11:42:00,63.0,52.6,29.98,North,-999,0.0,0.0,69,0.00,,,0.00,pywws,2013-06-18 18:42:00,
2013-06-18 11:47:00,63.0,52.6,29.98,North,-999,0.0,0.0,69,0.00,,,0.00,pywws,2013-06-18 18:47:00,
2013-06-18 11:52:00,64.2,53.8,29.98,North,-999,0.0,0.0,69,0.00,,,0.00,pywws,2013-06-18 18:52:00,
2013-06-18 12:02:00,65.1,53.5,29.98,North,-999,0.0,0.0,66,0.00,,,0.00,pywws,2013-06-18 19:02:00,
2013-06-18 12:07:00,69.8,54.8,29.98,North,-999,0.0,0.0,59,0.00,,,0.00,pywws,2013-06-18 19:07:00,
2013-06-18 12:12:00,66.2,51.4,29.98,North,-999,0.0,0.0,59,0.00,,,0.00,pywws,2013-06-18 19:12:00,
2013-06-18 12:17:00,67.5,52.6,29.98,North,-999,0.0,0.0,59,0.00,,,0.00,pywws,2013-06-18 19:17:00,
2013-06-18 12:22:00,65.8,53.7,29.97,North,0,0.7,2.2,65,0.00,,,0.00,pywws,2013-06-18 19:22:00,
2013-06-18 12:27:00,67.8,54.8,29.97,North,-999,0.0,1.6,63,0.00,,,0.00,pywws,2013-06-18 19:27:00,
2013-06-18 12:32:00,68.5,51.2,29.97,North,-999,0.0,0.0,54,0.00,,,0.00,pywws,2013-06-18 19:32:00,
2013-06-18 12:37:00,70.5,52.0,29.97,North,-999,0.0,0.0,52,0.00,,,0.00,pywws,2013-06-18 19:37:00,
2013-06-18 12:42:00,70.5,50.4,29.96,NE,45,0.7,1.6,49,0.00,,,0.00,pywws,2013-06-18 19:42:00,
2013-06-18 12:47:00,71.4,52.9,29.96,North,-999,0.0,0.0,52,0.00,,,0.00,pywws,2013-06-18 19:47:00,
2013-06-18 12:52:00,72.7,54.0,29.97,North,-999,0.0,0.0,52,0.00,,,0.00,pywws,2013-06-18 19:52:00,
2013-06-18 12:57:00,72.3,53.2,29.96,North,-999,0.0,0.0,51,0.00,,,0.00,pywws,2013-06-18 19:57:00,
2013-06-18 13:02:00,69.1,49.6,29.96,North,-999,0.0,0.7,50,0.00,,,0.00,pywws,2013-06-18 20:02:00,
2013-06-18 13:07:00,69.1,49.6,29.96,North,-999,0.0,0.7,50,0.00,,,0.00,pywws,2013-06-18 20:07:00,
2013-06-18 13:12:00,66.2,49.1,29.96,NW,315,1.6,2.2,54,0.00,,,0.00,pywws,2013-06-18 20:12:00,
2013-06-18 13:17:00,67.3,50.1,29.96,North,-999,0.0,0.0,54,0.00,,,0.00,pywws,2013-06-18 20:17:00,
2013-06-18 13:22:00,69.4,52.1,29.96,North,-999,0.0,0.0,54,0.00,,,0.00,pywws,2013-06-18 20:22:00,
2013-06-18 13:27:00,70.3,51.9,29.96,North,-999,0.0,0.0,52,0.00,,,0.00,pywws,2013-06-18 20:27:00,
2013-06-18 13:32:00,66.9,50.7,29.96,South,180,1.6,2.2,56,0.00,,,0.00,pywws,2013-06-18 20:32:00,
2013-06-18 13:37:00,66.6,51.3,29.95,North,-999,0.0,0.0,58,0.00,,,0.00,pywws,2013-06-18 20:37:00,
2013-06-18 13:42:00,65.8,51.6,29.96,North,-999,0.0,0.0,60,0.00,,,0.00,pywws,2013-06-18 20:42:00,
2013-06-18 13:47:00,66.4,53.4,29.96,North,-999,0.0,0.0,63,0.00,,,0.00,pywws,2013-06-18 20:47:00,
2013-06-18 13:52:00,65.3,52.4,29.96,North,-999,0.0,0.0,63,0.00,,,0.00,pywws,2013-06-18 20:52:00,
2013-06-18 13:57:00,65.5,53.0,29.96,North,-999,0.0,0.0,64,0.00,,,0.00,pywws,2013-06-18 20:57:00,
2013-06-18 14:02:00,68.0,54.0,29.95,North,-999,0.0,0.0,61,0.00,,,0.00,pywws,2013-06-18 21:02:00,
2013-06-18 14:07:00,66.7,51.9,29.95,West,270,2.2,3.8,59,0.00,,,0.00,pywws,2013-06-18 21:07:00,
2013-06-18 14:12:00,65.1,50.9,29.96,North,-999,0.0,0.0,60,0.00,,,0.00,pywws,2013-06-18 21:12:00,
2013-06-18 14:17:00,65.5,51.7,29.96,North,-999,0.0,0.0,61,0.00,,,0.00,pywws,2013-06-18 21:17:00,
2013-06-18 14:22:00,65.1,50.0,29.96,North,-999,0.0,0.0,58,0.00,,,0.00,pywws,2013-06-18 21:22:00,
2013-06-18 14:27:00,66.0,50.3,29.96,South,180,0.7,1.6,57,0.00,,,0.00,pywws,2013-06-18 21:27:00,
2013-06-18 14:32:00,66.2,50.5,29.96,North,-999,0.0,0.0,57,0.00,,,0.00,pywws,2013-06-18 21:32:00,
2013-06-18 14:37:00,67.6,54.6,29.96,North,-999,0.0,0.0,63,0.00,,,0.00,pywws,2013-06-18 21:37:00,
2013-06-18 14:42:00,66.9,51.7,29.95,North,-999,0.0,0.0,58,0.00,,,0.00,pywws,2013-06-18 21:42:00,
2013-06-18 14:47:00,65.1,50.9,29.95,North,-999,0.0,0.0,60,0.00,,,0.00,pywws,2013-06-18 21:47:00,
2013-06-18 14:52:00,65.1,51.8,29.95,North,-999,0.0,0.0,62,0.00,,,0.00,pywws,2013-06-18 21:52:00,
2013-06-18 14:57:00,65.3,52.4,29.95,North,-999,0.0,0.0,63,0.00,,,0.00,pywws,2013-06-18 21:57:00,
2013-06-18 15:02:00,65.1,51.8,29.95,North,-999,0.0,0.0,62,0.00,,,0.00,pywws,2013-06-18 22:02:00,
2013-06-18 15:07:00,65.1,51.8,29.95,North,-999,0.0,0.0,62,0.00,,,0.00,pywws,2013-06-18 22:07:00,
2013-06-18 15:12:00,66.0,54.3,29.95,North,-999,0.0,0.0,66,0.00,,,0.00,pywws,2013-06-18 22:12:00,
2013-06-18 15:17:00,67.1,54.5,29.95,North,-999,0.0,0.0,64,0.00,,,0.00,pywws,2013-06-18 22:17:00,
2013-06-18 15:22:00,67.6,51.4,29.95,North,-999,0.0,0.7,56,0.00,,,0.00,pywws,2013-06-18 22:22:00,
2013-06-18 15:27:00,68.7,51.4,29.94,North,-999,0.0,0.0,54,0.00,,,0.00,pywws,2013-06-18 22:27:00,
2013-06-18 15:32:00,68.9,51.6,29.94,North,0,0.7,2.2,54,0.00,,,0.00,pywws,2013-06-18 22:32:00,
2013-06-18 15:37:00,68.9,51.1,29.94,North,-999,0.0,0.0,53,0.00,,,0.00,pywws,2013-06-18 22:37:00,
2013-06-18 15:42:00,68.4,49.5,29.94,West,270,2.2,3.1,51,0.00,,,0.00,pywws,2013-06-18 22:42:00,
2013-06-18 15:47:00,69.3,50.9,29.94,West,270,2.2,4.5,52,0.00,,,0.00,pywws,2013-06-18 22:47:00,
2013-06-18 15:52:00,68.7,48.2,29.93,West,270,2.2,4.5,48,0.00,,,0.00,pywws,2013-06-18 22:52:00,
2013-06-18 16:02:00,69.6,50.1,29.94,North,-999,0.0,0.0,50,0.00,,,0.00,pywws,2013-06-18 23:02:00,
2013-06-18 16:07:00,70.9,50.2,29.93,North,-999,0.0,0.0,48,0.00,,,0.00,pywws,2013-06-18 23:07:00,
2013-06-18 16:12:00,68.9,47.8,29.93,West,270,1.6,2.2,47,0.00,,,0.00,pywws,2013-06-18 23:12:00,
2013-06-18 16:17:00,70.2,49.0,29.93,SE,135,0.7,1.6,47,0.00,,,0.00,pywws,2013-06-18 23:17:00,
2013-06-18 16:22:00,70.0,49.9,29.93,North,-999,0.0,0.7,49,0.00,,,0.00,pywws,2013-06-18 23:22:00,
2013-06-18 16:27:00,69.6,50.1,29.92,North,-999,0.0,0.0,50,0.00,,,0.00,pywws,2013-06-18 23:27:00,
2013-06-18 16:32:00,69.4,47.7,29.93,North,-999,0.0,0.0,46,0.00,,,0.00,pywws,2013-06-18 23:32:00,
2013-06-18 16:37:00,69.4,50.5,29.92,North,-999,0.0,0.0,51,0.00,,,0.00,pywws,2013-06-18 23:37:00,
2013-06-18 16:42:00,69.3,51.4,29.92,NW,315,1.6,3.1,53,0.00,,,0.00,pywws,2013-06-18 23:42:00,
2013-06-18 16:47:00,69.1,50.7,29.92,North,-999,0.0,0.0,52,0.00,,,0.00,pywws,2013-06-18 23:47:00,
2013-06-18 16:52:00,70.2,50.6,29.92,North,-999,0.0,0.0,50,0.00,,,0.00,pywws,2013-06-18 23:52:00,
2013-06-18 16:57:00,71.8,53.2,29.92,North,-999,0.0,0.0,52,0.00,,,0.00,pywws,2013-06-18 23:57:00,
2013-06-18 17:02:00,71.1,50.9,29.92,North,-999,0.0,0.0,49,0.00,,,0.00,pywws,2013-06-19 00:02:00,
2013-06-18 17:07:00,71.1,50.9,29.92,North,-999,0.0,0.0,49,0.00,,,0.00,pywws,2013-06-19 00:07:00,
2013-06-18 17:12:00,69.4,47.2,29.92,North,-999,0.0,0.0,45,0.00,,,0.00,pywws,2013-06-19 00:12:00,
2013-06-18 17:17:00,69.4,49.4,29.91,North,-999,0.0,0.0,49,0.00,,,0.00,pywws,2013-06-19 00:17:00,
2013-06-18 17:22:00,68.4,50.6,29.91,North,-999,0.0,0.0,53,0.00,,,0.00,pywws,2013-06-19 00:22:00,
2013-06-18 17:27:00,68.0,51.2,29.91,North,-999,0.0,0.0,55,0.00,,,0.00,pywws,2013-06-19 00:27:00,
2013-06-18 17:32:00,68.2,51.4,29.91,North,-999,0.0,0.0,55,0.00,,,0.00,pywws,2013-06-19 00:32:00,
2013-06-18 17:37:00,67.6,51.9,29.91,North,-999,0.0,0.0,57,0.00,,,0.00,pywws,2013-06-19 00:37:00,
2013-06-18 17:42:00,66.6,50.8,29.91,North,-999,0.0,0.0,57,0.00,,,0.00,pywws,2013-06-19 00:42:00,
2013-06-18 17:47:00,68.2,51.4,29.91,North,-999,0.0,0.0,55,0.00,,,0.00,pywws,2013-06-19 00:47:00,
2013-06-18 17:52:00,68.7,50.9,29.91,North,-999,0.0,0.0,53,0.00,,,0.00,pywws,2013-06-19 00:52:00,
2013-06-18 17:57:00,68.7,48.8,29.91,North,-999,0.0,0.0,49,0.00,,,0.00,pywws,2013-06-19 00:57:00,
2013-06-18 18:02:00,67.1,50.4,29.91,South,180,2.2,3.8,55,0.00,,,0.00,pywws,2013-06-19 01:02:00,
2013-06-18 18:07:00,66.0,51.3,29.92,North,-999,0.0,0.0,59,0.00,,,0.00,pywws,2013-06-19 01:07:00,
2013-06-18 18:12:00,66.2,49.5,29.92,North,-999,0.0,0.0,55,0.00,,,0.00,pywws,2013-06-19 01:12:00,
2013-06-18 18:17:00,66.0,49.9,29.92,North,-999,0.0,0.0,56,0.00,,,0.00,pywws,2013-06-19 01:17:00,
2013-06-18 18:22:00,66.0,50.8,29.92,North,-999,0.0,0.0,58,0.00,,,0.00,pywws,2013-06-19 01:22:00,
2013-06-18 18:27:00,65.8,49.7,29.92,North,-999,0.0,0.0,56,0.00,,,0.00,pywws,2013-06-19 01:27:00,
2013-06-18 18:32:00,65.3,50.1,29.92,North,-999,0.0,0.0,58,0.00,,,0.00,pywws,2013-06-19 01:32:00,
2013-06-18 18:37:00,65.1,50.4,29.93,North,-999,0.0,0.0,59,0.00,,,0.00,pywws,2013-06-19 01:37:00,
2013-06-18 18:42:00,64.9,50.3,29.93,North,-999,0.0,0.0,59,0.00,,,0.00,pywws,2013-06-19 01:42:00,
2013-06-18 18:47:00,65.8,49.7,29.93,East,90,2.2,3.8,56,0.00,,,0.00,pywws,2013-06-19 01:47:00,
2013-06-18 18:52:00,66.2,50.0,29.93,South,180,0.7,2.2,56,0.00,,,0.00,pywws,2013-06-19 01:52:00,
2013-06-18 18:57:00,67.3,50.6,29.93,North,-999,0.0,0.0,55,0.00,,,0.00,pywws,2013-06-19 01:57:00,
2013-06-18 19:02:00,66.7,51.5,29.93,North,-999,0.0,0.0,58,0.00,,,0.00,pywws,2013-06-19 02:02:00,
2013-06-18 19:07:00,66.7,51.5,29.94,North,-999,0.0,0.0,58,0.00,,,0.00,pywws,2013-06-19 02:07:00,
2013-06-18 19:12:00,65.5,49.8,29.94,South,180,1.6,3.8,57,0.00,,,0.00,pywws,2013-06-19 02:12:00,
2013-06-18 19:17:00,65.3,50.6,29.94,North,-999,0.0,0.0,59,0.00,,,0.00,pywws,2013-06-19 02:17:00,
2013-06-18 19:22:00,64.6,49.5,29.94,North,-999,0.0,0.0,58,0.00,,,0.00,pywws,2013-06-19 02:22:00,
2013-06-18 19:27:00,64.6,49.0,29.95,South,180,2.2,4.5,57,0.00,,,0.00,pywws,2013-06-19 02:27:00,
2013-06-18 19:32:00,63.7,50.0,29.95,South,180,0.7,1.6,61,0.00,,,0.00,pywws,2013-06-19 02:32:00,
2013-06-18 19:37:00,63.3,49.6,29.95,SE,135,1.6,3.1,61,0.00,,,0.00,pywws,2013-06-19 02:37:00,
2013-06-18 19:42:00,63.1,49.5,29.95,North,-999,0.0,0.0,61,0.00,,,0.00,pywws,2013-06-19 02:42:00,
2013-06-18 19:47:00,63.3,49.6,29.95,North,-999,0.0,0.0,61,0.00,,,0.00,pywws,2013-06-19 02:47:00,
2013-06-18 19:52:00,62.8,49.6,29.96,North,-999,0.0,0.0,62,0.00,,,0.00,pywws,2013-06-19 02:52:00,
2013-06-18 19:57:00,62.6,49.4,29.96,North,-999,0.0,0.0,62,0.00,,,0.00,pywws,2013-06-19 02:57:00,
2013-06-18 20:02:00,62.4,50.1,29.96,North,-999,0.0,0.0,64,0.00,,,0.00,pywws,2013-06-19 03:02:00,
2013-06-18 20:07:00,62.1,49.7,29.96,North,-999,0.0,0.0,64,0.00,,,0.00,pywws,2013-06-19 03:07:00,
2013-06-18 20:12:00,62.4,49.2,29.96,North,-999,0.0,0.0,62,0.00,,,0.00,pywws,2013-06-19 03:12:00,
2013-06-18 20:17:00,61.9,50.0,29.97,North,-999,0.0,0.0,65,0.00,,,0.00,pywws,2013-06-19 03:17:00,
2013-06-18 20:22:00,61.9,49.6,29.96,North,-999,0.0,0.0,64,0.00,,,0.00,pywws,2013-06-19 03:22:00,
2013-06-18 20:27:00,61.5,49.6,29.96,North,-999,0.0,0.0,65,0.00,,,0.00,pywws,2013-06-19 03:27:00,
2013-06-18 20:32:00,61.3,49.9,29.97,North,-999,0.0,0.0,66,0.00,,,0.00,pywws,2013-06-19 03:32:00,
2013-06-18 20:37:00,60.8,49.0,29.97,West,270,3.1,3.8,65,0.00,,,0.00,pywws,2013-06-19 03:37:00,
2013-06-18 20:42:00,60.6,49.6,29.97,North,-999,0.0,0.0,67,0.00,,,0.00,pywws,2013-06-19 03:42:00,
2013-06-18 20:47:00,60.3,49.7,29.97,North,-999,0.0,0.0,68,0.00,,,0.00,pywws,2013-06-19 03:47:00,
2013-06-18 20:52:00,60.3,50.0,29.97,North,-999,0.0,0.0,69,0.00,,,0.00,pywws,2013-06-19 03:52:00,
2013-06-18 20:57:00,60.1,50.3,29.97,North,-999,0.0,0.0,70,0.00,,,0.00,pywws,2013-06-19 03:57:00,
2013-06-18 21:02:00,59.7,49.9,29.97,North,-999,0.0,0.0,70,0.00,,,0.00,pywws,2013-06-19 04:02:00,
2013-06-18 21:07:00,59.7,49.9,29.97,North,-999,0.0,0.0,70,0.00,,,0.00,pywws,2013-06-19 04:07:00,
2013-06-18 21:12:00,59.0,50.0,29.97,North,-999,0.0,0.0,72,0.00,,,0.00,pywws,2013-06-19 04:12:00,
2013-06-18 21:17:00,59.0,50.4,29.97,North,-999,0.0,0.0,73,0.00,,,0.00,pywws,2013-06-19 04:17:00,
2013-06-18 21:22:00,58.8,50.5,29.97,North,-999,0.0,0.0,74,0.00,,,0.00,pywws,2013-06-19 04:22:00,
2013-06-18 21:27:00,58.6,50.4,29.98,North,-999,0.0,0.0,74,0.00,,,0.00,pywws,2013-06-19 04:27:00,
2013-06-18 21:32:00,58.6,50.7,29.98,North,-999,0.0,0.0,75,0.00,,,0.00,pywws,2013-06-19 04:32:00,
2013-06-18 21:37:00,58.6,50.7,29.98,North,-999,0.0,0.0,75,0.00,,,0.00,pywws,2013-06-19 04:37:00,
2013-06-18 21:42:00,58.5,50.6,29.98,North,-999,0.0,0.0,75,0.00,,,0.00,pywws,2013-06-19 04:42:00,
2013-06-18 21:47:00,58.5,50.6,29.98,North,-999,0.0,0.0,75,0.00,,,0.00,pywws,2013-06-19 04:47:00,
2013-06-18 21:52:00,58.5,50.9,29.98,North,-999,0.0,0.0,76,0.00,,,0.00,pywws,2013-06-19 04:52:00,
2013-06-18 21:57:00,58.5,50.9,29.98,North,-999,0.0,0.0,76,0.00,,,0.00,pywws,2013-06-19 04:57:00,
2013-06-18 22:02:00,58.3,50.7,29.98,North,-999,0.0,0.0,76,0.00,,,0.00,pywws,2013-06-19 05:02:00,
2013-06-18 22:07:00,58.3,50.7,29.98,North,-999,0.0,0.0,76,0.00,,,0.00,pywws,2013-06-19 05:07:00,
2013-06-18 22:12:00,58.3,51.1,29.98,North,-999,0.0,0.0,77,0.00,,,0.00,pywws,2013-06-19 05:12:00,
2013-06-18 22:17:00,58.1,50.9,29.98,North,-999,0.0,0.0,77,0.00,,,0.00,pywws,2013-06-19 05:17:00,
2013-06-18 22:22:00,58.1,50.9,29.98,North,-999,0.0,0.0,77,0.00,,,0.00,pywws,2013-06-19 05:22:00,
2013-06-18 22:27:00,57.9,50.8,29.98,North,-999,0.0,0.0,77,0.00,,,0.00,pywws,2013-06-19 05:27:00,
2013-06-18 22:32:00,58.1,50.9,29.98,North,-999,0.0,0.0,77,0.00,,,0.00,pywws,2013-06-19 05:32:00,
2013-06-18 22:37:00,58.1,50.9,29.98,North,-999,0.0,0.0,77,0.00,,,0.00,pywws,2013-06-19 05:37:00,
2013-06-18 22:42:00,58.1,50.9,29.98,North,-999,0.0,0.0,77,0.00,,,0.00,pywws,2013-06-19 05:42:00,
2013-06-18 22:47:00,57.9,50.8,29.98,North,-999,0.0,0.0,77,0.00,,,0.00,pywws,2013-06-19 05:47:00,
2013-06-18 22:52:00,58.1,50.9,29.98,North,-999,0.0,0.0,77,0.00,,,0.00,pywws,2013-06-19 05:52:00,
2013-06-18 22:57:00,57.9,51.1,29.98,North,-999,0.0,0.0,78,0.00,,,0.00,pywws,2013-06-19 05:57:00,
2013-06-18 23:02:00,57.9,50.8,29.98,North,-999,0.0,0.0,77,0.00,,,0.00,pywws,2013-06-19 06:02:00,
2013-06-18 23:07:00,57.9,50.8,29.99,North,-999,0.0,0.0,77,0.00,,,0.00,pywws,2013-06-19 06:07:00,
2013-06-18 23:12:00,57.9,50.8,29.99,North,-999,0.0,0.0,77,0.00,,,0.00,pywws,2013-06-19 06:12:00,
2013-06-18 23:17:00,57.6,50.4,29.98,North,-999,0.0,0.0,77,0.00,,,0.00,pywws,2013-06-19 06:17:00,
2013-06-18 23:22:00,57.2,50.1,29.98,North,-999,0.0,0.0,77,0.00,,,0.00,pywws,2013-06-19 06:22:00,
2013-06-18 23:27:00,57.2,50.1,29.98,North,-999,0.0,0.0,77,0.00,,,0.00,pywws,2013-06-19 06:27:00,
2013-06-18 23:32:00,57.0,50.2,29.98,North,-999,0.0,0.0,78,0.00,,,0.00,pywws,2013-06-19 06:32:00,
2013-06-18 23:37:00,56.8,50.4,29.98,North,-999,0.0,0.0,79,0.00,,,0.00,pywws,2013-06-19 06:37:00,
2013-06-18 23:42:00,57.0,50.6,29.99,North,-999,0.0,0.0,79,0.00,,,0.00,pywws,2013-06-19 06:42:00,
2013-06-18 23:47:00,57.2,50.7,29.98,North,-999,0.0,0.0,79,0.00,,,0.00,pywws,2013-06-19 06:47:00,
2013-06-18 23:52:00,57.2,50.7,29.98,North,-999,0.0,0.0,79,0.00,,,0.00,pywws,2013-06-19 06:52:00,
2013-06-18 23:57:00,56.8,50.4,29.99,North,-999,0.0,0.0,79,0.00,,,0.00,pywws,2013-06-19 06:57:00,